createdAt,value
2023-04-17T00:00:06.267Z,98418.63
2023-04-17T00:02:40.318Z,98408.75
2023-04-17T00:05:10.429Z,98414.13
2023-04-17T00:07:39.359Z,98422.19
2023-04-17T00:10:09.952Z,98419.50
2023-04-17T00:12:38.696Z,98418.63
2023-04-17T00:15:09.986Z,98407.88
2023-04-17T00:17:38.461Z,98405.03
2023-04-17T00:20:10.156Z,98413.09
2023-04-17T00:22:38.549Z,98407.88
2023-04-17T00:25:10.463Z,98404.34
2023-04-17T00:27:38.882Z,98407.03
2023-04-17T00:30:10.648Z,98400.84
2023-04-17T00:32:39.051Z,98400.84
2023-04-17T00:35:08.695Z,98399.81
2023-04-17T00:37:37.035Z,98401.66
2023-04-17T00:40:06.274Z,98399.16
2023-04-17T00:42:34.681Z,98403.53
2023-04-17T00:45:04.434Z,98402.50
2023-04-17T00:47:34.341Z,98407.88
2023-04-17T00:50:02.910Z,98405.19
2023-04-17T00:52:31.350Z,98415.13
2023-04-17T00:55:00.007Z,98402.50
2023-04-17T00:57:28.495Z,98407.03
2023-04-17T00:59:57.644Z,98406.06
2023-04-17T01:02:26.275Z,98406.22
2023-04-17T01:04:56.038Z,98409.72
2023-04-17T01:07:24.841Z,98408.06
2023-04-17T01:09:53.182Z,98408.06
2023-04-17T01:12:22.627Z,98402.69
2023-04-17T01:14:51.737Z,98400.00
2023-04-17T01:17:20.604Z,98408.91
2023-04-17T01:19:49.195Z,98395.63
2023-04-17T01:22:20.039Z,98408.06
2023-04-17T01:24:49.872Z,98411.75
2023-04-17T01:27:18.198Z,98397.47
2023-04-17T01:29:48.002Z,98394.78
2023-04-17T01:32:16.379Z,98397.47
2023-04-17T01:34:44.737Z,98401.88
2023-04-17T01:37:13.407Z,98393.97
2023-04-17T01:39:42.070Z,98395.63
2023-04-17T01:42:11.748Z,98389.41
2023-04-17T01:44:40.157Z,98382.16
2023-04-17T01:47:08.575Z,98391.28
2023-04-17T01:49:36.987Z,98394.78
2023-04-17T01:52:05.624Z,98396.66
2023-04-17T01:54:34.052Z,98391.28
2023-04-17T01:57:02.588Z,98392.09
2023-04-17T01:59:32.356Z,98395.81
2023-04-17T02:02:00.901Z,98394.13
2023-04-17T02:04:29.394Z,98389.59
2023-04-17T02:06:57.876Z,98395.81
2023-04-17T02:09:27.085Z,98407.56
2023-04-17T02:11:56.936Z,98398.50
2023-04-17T02:14:25.994Z,98409.44
2023-04-17T02:16:55.895Z,98411.97
2023-04-17T02:19:24.264Z,98402.19
2023-04-17T02:21:52.681Z,98407.56
2023-04-17T02:24:21.093Z,98407.56
2023-04-17T02:26:50.905Z,98414.81
2023-04-17T02:29:19.276Z,98413.97
2023-04-17T02:31:47.714Z,98414.66
2023-04-17T02:34:17.509Z,98401.38
2023-04-17T02:36:45.930Z,98395.97
2023-04-17T02:39:14.341Z,98396.81
2023-04-17T02:41:42.796Z,98396.81
2023-04-17T02:44:11.170Z,98409.44
2023-04-17T02:46:40.102Z,98412.13
2023-04-17T02:49:08.545Z,98410.25
2023-04-17T02:51:38.276Z,98402.19
2023-04-17T02:54:06.777Z,98408.59
2023-04-17T02:56:35.186Z,98399.69
2023-04-17T02:59:03.559Z,98413.97
2023-04-17T03:01:34.130Z,98408.59
2023-04-17T03:04:02.775Z,98408.59
2023-04-17T03:06:31.300Z,98410.47
2023-04-17T03:09:01.033Z,98417.50
2023-04-17T03:11:29.371Z,98421.22
2023-04-17T03:13:57.704Z,98416.84
2023-04-17T03:16:26.190Z,98415.00
2023-04-17T03:18:54.593Z,98415.00
2023-04-17T03:21:22.977Z,98416.84
2023-04-17T03:23:51.359Z,98425.75
2023-04-17T03:26:21.662Z,98423.91
2023-04-17T03:28:50.082Z,98424.75
2023-04-17T03:31:18.405Z,98416.84
2023-04-17T03:33:46.813Z,98423.91
2023-04-17T03:36:15.676Z,98433.84
2023-04-17T03:38:44.088Z,98427.59
2023-04-17T03:41:12.499Z,98426.75
2023-04-17T03:43:42.323Z,98436.69
2023-04-17T03:46:10.755Z,98439.22
2023-04-17T03:48:39.116Z,98434.00
2023-04-17T03:51:07.618Z,98452.00
2023-04-17T03:53:36.231Z,98441.22
2023-04-17T03:56:04.895Z,98452.81
2023-04-17T03:58:33.287Z,98459.03
2023-04-17T04:01:03.020Z,98458.19
2023-04-17T04:03:31.574Z,98459.03
2023-04-17T04:06:00.145Z,98454.69
2023-04-17T04:08:28.528Z,98463.78
2023-04-17T04:10:56.979Z,98460.06
2023-04-17T04:13:25.435Z,98462.75
2023-04-17T04:15:53.821Z,98464.59
2023-04-17T04:18:23.696Z,98465.44
2023-04-17T04:20:52.153Z,98462.75
2023-04-17T04:23:21.391Z,98472.47
2023-04-17T04:25:50.601Z,98468.97
2023-04-17T04:28:19.034Z,98476.19
2023-04-17T04:30:50.650Z,98476.00
2023-04-17T04:33:21.215Z,98474.34
2023-04-17T04:35:51.900Z,98481.38
2023-04-17T04:38:20.346Z,98485.94
2023-04-17T04:40:50.140Z,98474.34
2023-04-17T04:43:20.848Z,98485.94
2023-04-17T04:45:50.596Z,98480.56
2023-04-17T04:48:19.035Z,98479.56
2023-04-17T04:50:47.456Z,98484.56
2023-04-17T04:53:17.286Z,98475.00
2023-04-17T04:55:45.914Z,98483.91
2023-04-17T04:58:14.235Z,98485.06
2023-04-17T05:00:43.706Z,98482.34
2023-04-17T05:03:12.789Z,98487.75
2023-04-17T05:05:41.988Z,98489.44
2023-04-17T05:08:10.353Z,98484.06
2023-04-17T05:10:40.123Z,98482.56
2023-04-17T05:13:08.540Z,98483.56
2023-04-17T05:15:37.210Z,98472.44
2023-04-17T05:18:05.668Z,98486.59
2023-04-17T05:20:34.115Z,98485.56
2023-04-17T05:23:02.488Z,98477.69
2023-04-17T05:25:30.936Z,98485.75
2023-04-17T05:28:00.696Z,98488.25
2023-04-17T05:30:29.034Z,98481.88
2023-04-17T05:32:58.646Z,98486.59
2023-04-17T05:35:27.318Z,98482.56
2023-04-17T05:37:56.222Z,98480.69
2023-04-17T05:40:24.612Z,98484.75
2023-04-17T05:42:53.081Z,98491.47
2023-04-17T05:45:25.374Z,98488.94
2023-04-17T05:47:54.130Z,98500.72
2023-04-17T05:50:22.593Z,98504.59
2023-04-17T05:52:51.169Z,98505.44
2023-04-17T05:55:20.169Z,98509.31
2023-04-17T05:57:48.871Z,98500.56
2023-04-17T06:00:18.928Z,98497.03
2023-04-17T06:02:48.808Z,98503.25
2023-04-17T06:05:17.507Z,98490.47
2023-04-17T06:07:46.045Z,98507.28
2023-04-17T06:10:14.472Z,98498.03
2023-04-17T06:12:42.852Z,98499.69
2023-04-17T06:15:12.687Z,98491.09
2023-04-17T06:17:41.905Z,98496.94
2023-04-17T06:20:12.805Z,98501.03
2023-04-17T06:22:44.280Z,98501.38
2023-04-17T06:25:12.900Z,98484.56
2023-04-17T06:27:41.439Z,98499.69
2023-04-17T06:30:11.208Z,98500.53
2023-04-17T06:32:43.908Z,98507.59
2023-04-17T06:35:13.679Z,98498.84
2023-04-17T06:37:42.107Z,98510.44
2023-04-17T06:40:12.784Z,98499.69
2023-04-17T06:42:41.559Z,98502.22
2023-04-17T06:45:11.122Z,98501.38
2023-04-17T06:47:39.552Z,98501.38
2023-04-17T06:50:10.141Z,98503.03
2023-04-17T06:52:39.990Z,98503.03
2023-04-17T06:55:10.584Z,98514.47
2023-04-17T06:57:39.357Z,98515.47
2023-04-17T07:00:09.963Z,98522.72
2023-04-17T07:02:38.487Z,98535.16
2023-04-17T07:05:08.256Z,98533.31
2023-04-17T07:07:36.921Z,98537.00
2023-04-17T07:10:08.479Z,98540.72
2023-04-17T07:12:36.832Z,98549.59
2023-04-17T07:15:05.966Z,98554.16
2023-04-17T07:17:34.444Z,98551.47
2023-04-17T07:20:02.871Z,98553.31
2023-04-17T07:22:31.291Z,98547.13
2023-04-17T07:24:59.653Z,98551.47
2023-04-17T07:27:29.473Z,98548.63
2023-04-17T07:29:57.949Z,98547.75
2023-04-17T07:32:28.593Z,98546.56
2023-04-17T07:34:57.138Z,98549.44
2023-04-17T07:37:25.748Z,98557.31
2023-04-17T07:39:54.885Z,98547.28
2023-04-17T07:42:23.324Z,98552.19
2023-04-17T07:44:53.033Z,98549.66
2023-04-17T07:47:21.666Z,98550.66
2023-04-17T07:49:50.450Z,98549.66
2023-04-17T07:52:18.876Z,98548.81
2023-04-17T07:54:47.250Z,98551.31
2023-04-17T07:57:18.160Z,98545.94
2023-04-17T07:59:47.269Z,98558.38
2023-04-17T08:02:17.179Z,98562.75
2023-04-17T08:04:46.941Z,98564.25
2023-04-17T08:07:15.504Z,98566.94
2023-04-17T08:09:44.319Z,98563.53
2023-04-17T08:12:12.716Z,98562.69
2023-04-17T08:14:41.148Z,98567.91
2023-04-17T08:17:09.679Z,98559.84
2023-04-17T08:19:39.591Z,98566.91
2023-04-17T08:22:08.188Z,98562.53
2023-04-17T08:24:36.873Z,98563.22
2023-04-17T08:27:06.208Z,98560.53
2023-04-17T08:29:34.631Z,98563.22
2023-04-17T08:32:13.883Z,98564.03
2023-04-17T08:34:46.004Z,98558.31
2023-04-17T08:37:14.410Z,98562.53
2023-04-17T08:40:18.289Z,98561.34
2023-04-17T08:42:48.280Z,98556.31
2023-04-17T08:45:17.523Z,98554.25
2023-04-17T08:47:46.054Z,98556.13
2023-04-17T08:50:17.859Z,98557.31
2023-04-17T08:52:47.254Z,98550.41
2023-04-17T08:55:16.970Z,98556.81
2023-04-17T08:57:58.730Z,98560.16
2023-04-17T09:00:31.254Z,98560.88
2023-04-17T09:03:00.578Z,98558.47
2023-04-17T09:05:33.519Z,98555.97
2023-04-17T09:08:13.176Z,98554.94
2023-04-17T09:10:43.019Z,98557.47
2023-04-17T09:13:14.467Z,98556.47
2023-04-17T09:15:43.294Z,98552.59
2023-04-17T09:18:25.928Z,98557.97
2023-04-17T09:20:57.688Z,98554.47
2023-04-17T09:23:26.283Z,98557.81
2023-04-17T09:26:10.948Z,98559.66
2023-04-17T09:28:40.192Z,98549.91
2023-04-17T09:31:25.678Z,98559.84
2023-04-17T09:33:58.253Z,98551.78
2023-04-17T09:36:30.755Z,98549.09
2023-04-17T09:39:00.296Z,98552.59
2023-04-17T09:41:30.092Z,98552.78
2023-04-17T09:44:01.841Z,98547.41
2023-04-17T09:46:35.450Z,98544.72
2023-04-17T09:49:15.822Z,98542.03
2023-04-17T09:51:45.899Z,98543.84
2023-04-17T09:54:15.804Z,98544.72
2023-04-17T09:56:44.588Z,98540.19
2023-04-17T09:59:13.397Z,98538.31
2023-04-17T10:01:42.503Z,98541.00
2023-04-17T10:04:11.394Z,98533.09
2023-04-17T10:06:40.217Z,98532.28
2023-04-17T10:09:10.221Z,98537.66
2023-04-17T10:11:40.255Z,98538.31
2023-04-17T10:14:14.120Z,98529.41
2023-04-17T10:16:43.886Z,98528.38
2023-04-17T10:19:31.615Z,98532.09
2023-04-17T10:22:31.328Z,98519.47
2023-04-17T10:25:23.548Z,98530.25
2023-04-17T10:27:58.309Z,98524.88
2023-04-17T10:30:49.957Z,98526.88
2023-04-17T10:33:30.956Z,98517.81
2023-04-17T10:35:59.284Z,98521.50
2023-04-17T10:38:35.812Z,98530.41
2023-04-17T10:41:09.466Z,98527.72
2023-04-17T10:43:43.526Z,98529.75
2023-04-17T10:46:12.670Z,98525.19
2023-04-17T10:48:49.581Z,98529.75
2023-04-17T10:51:43.718Z,98522.84
2023-04-17T10:54:15.639Z,98519.13
2023-04-17T10:56:48.397Z,98512.94
2023-04-17T10:59:17.394Z,98524.53
2023-04-17T11:02:01.122Z,98514.59
2023-04-17T11:04:31.588Z,98515.97
2023-04-17T11:07:00.056Z,98517.81
2023-04-17T11:09:29.489Z,98522.66
2023-04-17T11:12:02.861Z,98530.94
2023-04-17T11:14:32.380Z,98536.31
2023-04-17T11:17:01.923Z,98523.84
2023-04-17T11:19:30.433Z,98536.31
2023-04-17T11:22:01.396Z,98537.31
2023-04-17T11:24:30.696Z,98528.75
2023-04-17T11:27:02.096Z,98538.44
2023-04-17T11:29:30.774Z,98540.38
2023-04-17T11:32:00.873Z,98543.28
2023-04-17T11:34:29.379Z,98546.16
2023-04-17T11:36:59.060Z,98543.63
2023-04-17T11:39:29.986Z,98553.03
2023-04-17T11:41:58.513Z,98555.72
2023-04-17T11:44:29.218Z,98554.88
2023-04-17T11:46:58.849Z,98563.94
2023-04-17T11:49:27.785Z,98561.44
2023-04-17T11:51:58.453Z,98568.47
2023-04-17T11:54:27.912Z,98562.25
2023-04-17T11:57:01.568Z,98573.50
2023-04-17T11:59:36.005Z,98569.09
2023-04-17T12:02:06.821Z,98561.22
2023-04-17T12:04:35.592Z,98562.41
2023-04-17T12:07:04.512Z,98567.59
2023-04-17T12:09:33.041Z,98565.41
2023-04-17T12:12:02.740Z,98567.91
2023-04-17T12:14:31.506Z,98551.97
2023-04-17T12:17:01.459Z,98568.75
2023-04-17T12:19:31.954Z,98557.66
2023-04-17T12:22:00.902Z,98562.19
2023-04-17T12:24:29.338Z,98559.34
2023-04-17T12:26:58.773Z,98568.91
2023-04-17T12:29:40.641Z,98571.59
2023-04-17T12:32:16.058Z,98567.41
2023-04-17T12:34:44.512Z,98574.28
2023-04-17T12:37:12.988Z,98573.63
2023-04-17T12:39:41.388Z,98574.78
2023-04-17T12:42:09.864Z,98573.47
2023-04-17T12:44:39.750Z,98575.00
2023-04-17T12:47:08.329Z,98574.78
2023-04-17T12:49:38.140Z,98570.09
2023-04-17T12:52:06.594Z,98565.88
2023-04-17T12:54:35.001Z,98569.72
2023-04-17T12:57:03.661Z,98570.56
2023-04-17T12:59:32.074Z,98572.06
2023-04-17T13:02:00.961Z,98573.75
2023-04-17T13:04:29.652Z,98567.50
2023-04-17T13:06:59.540Z,98563.84
2023-04-17T13:09:28.174Z,98570.03
2023-04-17T13:11:57.893Z,98565.50
2023-04-17T13:14:26.332Z,98565.34
2023-04-17T13:16:54.734Z,98565.50
2023-04-17T13:19:23.332Z,98562.81
2023-04-17T13:21:52.734Z,98563.84
2023-04-17T13:24:22.537Z,98554.03
2023-04-17T13:26:51.122Z,98565.31
2023-04-17T13:29:20.003Z,98564.78
2023-04-17T13:31:48.566Z,98556.09
2023-04-17T13:34:16.995Z,98561.63
2023-04-17T13:36:45.526Z,98560.13
2023-04-17T13:39:14.016Z,98551.06
2023-04-17T13:41:43.828Z,98562.66
2023-04-17T13:44:12.655Z,98554.75
2023-04-17T13:46:41.218Z,98553.91
2023-04-17T13:49:09.660Z,98560.13
2023-04-17T13:51:38.119Z,98556.44
2023-04-17T13:54:06.756Z,98564.50
2023-04-17T13:56:35.103Z,98555.56
2023-04-17T13:59:05.729Z,98566.31
2023-04-17T14:01:34.231Z,98561.16
2023-04-17T14:04:02.861Z,98557.28
2023-04-17T14:06:32.339Z,98570.88
2023-04-17T14:09:00.756Z,98560.94
2023-04-17T14:11:29.716Z,98570.72
2023-04-17T14:13:58.329Z,98573.75
2023-04-17T14:16:28.181Z,98566.31
2023-04-17T14:18:59.331Z,98570.88
2023-04-17T14:21:32.828Z,98558.25
2023-04-17T14:24:01.198Z,98558.41
2023-04-17T14:26:29.606Z,98556.91
2023-04-17T14:28:58.139Z,98562.47
2023-04-17T14:31:27.971Z,98548.19
2023-04-17T14:33:56.425Z,98559.59
2023-04-17T14:36:24.845Z,98566.31
2023-04-17T14:38:53.969Z,98558.25
2023-04-17T14:41:22.502Z,98560.94
2023-04-17T14:43:50.957Z,98556.59
2023-04-17T14:46:21.294Z,98557.91
2023-04-17T14:48:55.547Z,98552.53
2023-04-17T14:51:24.612Z,98563.63
2023-04-17T14:53:53.464Z,98554.75
2023-04-17T14:56:22.651Z,98551.22
2023-04-17T14:58:51.419Z,98560.78
2023-04-17T15:01:20.078Z,98563.63
2023-04-17T15:03:49.155Z,98550.53
2023-04-17T15:06:20.089Z,98555.09
2023-04-17T15:08:48.601Z,98566.16
2023-04-17T15:11:17.190Z,98571.34
2023-04-17T15:13:45.568Z,98575.06
2023-04-17T15:16:14.168Z,98567.72
2023-04-17T15:18:42.622Z,98558.78
2023-04-17T15:21:12.011Z,98563.28
2023-04-17T15:23:41.787Z,98568.66
2023-04-17T15:26:10.211Z,98571.34
2023-04-17T15:28:38.774Z,98561.78
2023-04-17T15:31:08.101Z,98562.78
2023-04-17T15:33:36.526Z,98566.50
2023-04-17T15:36:05.174Z,98565.66
2023-04-17T15:38:33.676Z,98569.84
2023-04-17T15:41:04.090Z,98556.22
2023-04-17T15:43:32.526Z,98570.69
2023-04-17T15:46:02.369Z,98561.09
2023-04-17T15:48:31.411Z,98569.00
2023-04-17T15:50:59.884Z,98561.59
2023-04-17T15:53:28.307Z,98563.59
2023-04-17T15:55:56.676Z,98567.31
2023-04-17T15:58:26.500Z,98561.94
2023-04-17T16:00:54.917Z,98565.31
2023-04-17T16:03:23.440Z,98562.97
2023-04-17T16:05:53.961Z,98558.59
2023-04-17T16:08:22.603Z,98565.66
2023-04-17T16:10:51.017Z,98564.78
2023-04-17T16:13:19.469Z,98562.09
2023-04-17T16:15:50.590Z,98554.03
2023-04-17T16:18:19.183Z,98566.50
2023-04-17T16:20:47.708Z,98565.66
2023-04-17T16:23:16.190Z,98563.97
2023-04-17T16:25:44.689Z,98564.78
2023-04-17T16:28:13.153Z,98570.16
2023-04-17T16:30:41.740Z,98558.78
2023-04-17T16:33:11.623Z,98558.59
2023-04-17T16:35:40.252Z,98555.22
2023-04-17T16:38:08.689Z,98571.34
2023-04-17T16:40:37.450Z,98567.00
2023-04-17T16:43:05.833Z,98569.69
2023-04-17T16:45:34.309Z,98568.19
2023-04-17T16:48:02.782Z,98573.41
2023-04-17T16:50:32.549Z,98571.72
2023-04-17T16:53:00.956Z,98578.78
2023-04-17T16:55:29.378Z,98583.13
2023-04-17T16:58:00.109Z,98575.91
2023-04-17T17:00:28.481Z,98573.41
2023-04-17T17:02:56.909Z,98584.81
2023-04-17T17:05:25.996Z,98586.50
2023-04-17T17:07:55.735Z,98586.16
2023-04-17T17:10:24.235Z,98590.84
2023-04-17T17:12:52.770Z,98594.56
2023-04-17T17:15:21.502Z,98598.25
2023-04-17T17:17:50.102Z,98591.03
2023-04-17T17:20:19.236Z,98593.06
2023-04-17T17:22:47.633Z,98598.09
2023-04-17T17:25:17.635Z,98594.56
2023-04-17T17:27:46.309Z,98600.94
2023-04-17T17:30:15.731Z,98603.31
2023-04-17T17:32:44.195Z,98595.03
2023-04-17T17:35:12.618Z,98599.59
2023-04-17T17:37:42.385Z,98601.09
2023-04-17T17:40:11.759Z,98615.72
2023-04-17T17:42:41.541Z,98605.81
2023-04-17T17:45:11.380Z,98610.69
2023-04-17T17:47:40.312Z,98616.06
2023-04-17T17:50:10.064Z,98612.72
2023-04-17T17:52:38.510Z,98607.00
2023-04-17T17:55:07.806Z,98615.25
2023-04-17T17:57:47.918Z,98607.34
2023-04-17T18:00:19.891Z,98616.91
2023-04-17T18:02:48.481Z,98613.03
2023-04-17T18:05:16.952Z,98630.00
2023-04-17T18:07:47.689Z,98621.09
2023-04-17T18:10:16.312Z,98624.47
2023-04-17T18:12:44.722Z,98614.91
2023-04-17T18:15:13.409Z,98625.78
2023-04-17T18:17:43.323Z,98630.53
2023-04-17T18:20:12.599Z,98619.09
2023-04-17T18:22:41.024Z,98630.19
2023-04-17T18:25:11.162Z,98629.34
2023-04-17T18:27:39.589Z,98625.81
2023-04-17T18:30:09.593Z,98619.59
2023-04-17T18:32:38.215Z,98629.53
2023-04-17T18:35:09.505Z,98637.59
2023-04-17T18:37:37.900Z,98629.53
2023-04-17T18:40:08.063Z,98626.00
2023-04-17T18:42:36.501Z,98635.91
2023-04-17T18:45:05.392Z,98622.44
2023-04-17T18:47:33.878Z,98627.19
2023-04-17T18:50:02.412Z,98629.88
2023-04-17T18:52:32.343Z,98633.41
2023-04-17T18:55:00.818Z,98628.00
2023-04-17T18:57:29.235Z,98627.19
2023-04-17T18:59:57.732Z,98632.56
2023-04-17T19:02:26.296Z,98638.94
2023-04-17T19:04:56.306Z,98634.41
2023-04-17T19:07:25.062Z,98637.94
2023-04-17T19:09:54.926Z,98640.63
2023-04-17T19:12:23.429Z,98637.09
2023-04-17T19:14:51.993Z,98639.78
2023-04-17T19:17:20.492Z,98645.19
2023-04-17T19:19:48.925Z,98644.97
2023-04-17T19:22:18.484Z,98642.50
2023-04-17T19:24:50.067Z,98644.31
2023-04-17T19:27:20.047Z,98640.63
2023-04-17T19:29:48.497Z,98650.56
2023-04-17T19:32:17.417Z,98642.50
2023-04-17T19:34:46.531Z,98652.38
2023-04-17T19:37:15.035Z,98632.56
2023-04-17T19:39:43.478Z,98645.81
2023-04-17T19:42:12.314Z,98641.47
2023-04-17T19:44:42.158Z,98636.75
2023-04-17T19:47:10.559Z,98634.22
2023-04-17T19:49:39.054Z,98637.25
2023-04-17T19:52:07.510Z,98631.88
2023-04-17T19:54:35.951Z,98630.03
2023-04-17T19:57:04.768Z,98622.16
2023-04-17T19:59:33.220Z,98632.91
2023-04-17T20:02:03.105Z,98625.84
2023-04-17T20:04:31.639Z,98621.63
2023-04-17T20:07:00.053Z,98629.56
2023-04-17T20:09:28.469Z,98626.19
2023-04-17T20:11:56.855Z,98617.97
2023-04-17T20:14:25.894Z,98611.56
2023-04-17T20:16:54.304Z,98617.78
2023-04-17T20:19:24.482Z,98615.09
2023-04-17T20:21:52.931Z,98615.09
2023-04-17T20:24:21.276Z,98610.72
2023-04-17T20:26:49.690Z,98621.28
2023-04-17T20:29:18.119Z,98608.03
2023-04-17T20:31:46.518Z,98620.47
2023-04-17T20:34:15.014Z,98608.03
2023-04-17T20:36:45.422Z,98613.41
2023-04-17T20:39:14.130Z,98622.47
2023-04-17T20:41:42.754Z,98609.03
2023-04-17T20:44:11.731Z,98609.88
2023-04-17T20:46:40.445Z,98611.72
2023-04-17T20:49:08.919Z,98617.09
2023-04-17T20:51:37.400Z,98616.25
2023-04-17T20:54:07.389Z,98614.41
2023-04-17T20:56:35.900Z,98612.59
2023-04-17T20:59:04.377Z,98621.63
2023-04-17T21:01:32.864Z,98618.94
2023-04-17T21:04:01.444Z,98613.75
2023-04-17T21:06:29.908Z,98625.16
2023-04-17T21:08:58.377Z,98627.00
2023-04-17T21:11:28.170Z,98620.81
2023-04-17T21:13:58.503Z,98619.97
2023-04-17T21:16:27.031Z,98615.59
2023-04-17T21:18:55.471Z,98634.25
2023-04-17T21:21:23.910Z,98620.97
2023-04-17T21:23:53.240Z,98625.34
2023-04-17T21:26:22.021Z,98618.28
2023-04-17T21:28:51.986Z,98618.13
2023-04-17T21:31:20.400Z,98619.78
2023-04-17T21:33:48.865Z,98617.97
2023-04-17T21:36:19.387Z,98616.25
2023-04-17T21:38:47.732Z,98615.44
2023-04-17T21:41:16.108Z,98615.44
2023-04-17T21:43:44.591Z,98607.38
2023-04-17T21:46:14.541Z,98612.75
2023-04-17T21:48:43.177Z,98616.25
2023-04-17T21:51:11.591Z,98612.75
2023-04-17T21:53:40.003Z,98610.88
2023-04-17T21:56:09.647Z,98615.44
2023-04-17T21:58:38.024Z,98604.84
2023-04-17T22:01:06.702Z,98609.22
2023-04-17T22:03:36.611Z,98606.53
2023-04-17T22:06:06.032Z,98610.06
2023-04-17T22:08:34.533Z,98610.88
2023-04-17T22:11:02.993Z,98608.38
2023-04-17T22:13:32.201Z,98607.38
2023-04-17T22:16:00.677Z,98620.81
2023-04-17T22:18:29.244Z,98610.06
2023-04-17T22:20:58.994Z,98611.91
2023-04-17T22:23:27.438Z,98610.06
2023-04-17T22:25:55.873Z,98613.75
2023-04-17T22:28:24.304Z,98607.38
2023-04-17T22:30:52.914Z,98616.25
2023-04-17T22:33:21.396Z,98617.09
2023-04-17T22:35:50.572Z,98615.44
2023-04-17T22:38:20.802Z,98615.44
2023-04-17T22:44:49.107Z,98612.75
2023-04-17T22:47:17.555Z,98610.06
2023-04-17T22:49:45.979Z,98607.38
2023-04-17T22:52:14.376Z,98615.44
2023-04-17T22:54:44.174Z,98615.44
2023-04-17T22:57:12.623Z,98618.13
2023-04-17T22:59:42.238Z,98610.88
2023-04-17T23:02:10.687Z,98610.06
2023-04-17T23:04:39.253Z,98601.16
2023-04-17T23:07:07.667Z,98605.69
2023-04-17T23:10:21.058Z,98609.22
2023-04-17T23:12:49.400Z,98606.69
2023-04-17T23:15:17.746Z,98601.31
2023-04-17T23:17:46.457Z,98598.63
2023-04-17T23:20:15.015Z,98602.34
2023-04-17T23:22:43.420Z,98603.00
2023-04-17T23:25:12.046Z,98592.59
2023-04-17T23:27:41.816Z,98595.09
2023-04-17T23:30:11.067Z,98589.72
2023-04-17T23:32:41.722Z,98593.09
2023-04-17T23:35:10.890Z,98593.25
2023-04-17T23:37:39.312Z,98589.72
2023-04-17T23:40:09.747Z,98587.88
2023-04-17T23:42:38.071Z,98585.19
2023-04-17T23:45:09.542Z,98586.19
2023-04-17T23:47:38.041Z,98585.38
2023-04-17T23:50:07.587Z,98591.59
2023-04-17T23:52:36.018Z,98590.56
2023-04-17T23:55:04.882Z,98583.50
2023-04-17T23:57:34.774Z,98584.34
